sensor_id;sensor_type;location;lat;lon;timestamp;P1;durP1;ratioP1;P2;durP2;ratioP2
29700;SDS011;57917;51.380;-0.176;2023-05-07T00:04:31;2.47;;;1.30;;
29700;SDS011;57917;51.380;-0.176;2023-05-07T00:10:23;2.80;;;1.60;;
29700;SDS011;57917;51.380;-0.176;2023-05-07T00:16:11;3.00;;;1.60;;
29700;SDS011;57917;51.380;-0.176;2023-05-07T00:22:00;6.25;;;1.60;;
29700;SDS011;57917;51.380;-0.176;2023-05-07T00:27:48;3.13;;;1.80;;
29700;SDS011;57917;51.380;-0.176;2023-05-07T00:33:35;2.97;;;2.10;;
29700;SDS011;57917;51.380;-0.176;2023-05-07T00:39:24;3.13;;;1.98;;
29700;SDS011;57917;51.380;-0.176;2023-05-07T00:45:11;4.20;;;2.33;;
29700;SDS011;57917;51.380;-0.176;2023-05-07T00:50:59;3.40;;;2.33;;
29700;SDS011;57917;51.380;-0.176;2023-05-07T00:56:47;5.07;;;3.15;;
29700;SDS011;57917;51.380;-0.176;2023-05-07T01:02:41;4.93;;;2.35;;
29700;SDS011;57917;51.380;-0.176;2023-05-07T01:08:29;5.13;;;2.50;;
29700;SDS011;57917;51.380;-0.176;2023-05-07T01:14:20;10.07;;;3.50;;
29700;SDS011;57917;51.380;-0.176;2023-05-07T01:20:08;8.60;;;3.40;;
29700;SDS011;57917;51.380;-0.176;2023-05-07T01:26:01;8.00;;;3.83;;
29700;SDS011;57917;51.380;-0.176;2023-05-07T01:31:53;6.83;;;3.57;;
29700;SDS011;57917;51.380;-0.176;2023-05-07T01:37:42;10.95;;;3.95;;
29700;SDS011;57917;51.380;-0.176;2023-05-07T01:43:33;10.80;;;4.20;;
29700;SDS011;57917;51.380;-0.176;2023-05-07T01:49:21;6.57;;;4.00;;
29700;SDS011;57917;51.380;-0.176;2023-05-07T01:55:09;8.60;;;4.00;;
29700;SDS011;57917;51.380;-0.176;2023-05-07T02:00:56;6.32;;;3.97;;
29700;SDS011;57917;51.380;-0.176;2023-05-07T02:06:43;5.88;;;3.80;;
29700;SDS011;57917;51.380;-0.176;2023-05-07T02:12:32;13.70;;;4.25;;
29700;SDS011;57917;51.380;-0.176;2023-05-07T02:18:20;17.42;;;4.03;;
29700;SDS011;57917;51.380;-0.176;2023-05-07T02:24:07;12.80;;;4.45;;
29700;SDS011;57917;51.380;-0.176;2023-05-07T02:29:56;6.80;;;3.92;;
29700;SDS011;57917;51.380;-0.176;2023-05-07T02:35:43;9.52;;;4.35;;
29700;SDS011;57917;51.380;-0.176;2023-05-07T02:41:35;7.47;;;4.07;;
29700;SDS011;57917;51.380;-0.176;2023-05-07T02:47:25;12.05;;;4.38;;
29700;SDS011;57917;51.380;-0.176;2023-05-07T02:53:16;12.05;;;5.22;;
29700;SDS011;57917;51.380;-0.176;2023-05-07T02:59:03;6.82;;;3.72;;
29700;SDS011;57917;51.380;-0.176;2023-05-07T03:04:55;9.77;;;4.97;;
29700;SDS011;57917;51.380;-0.176;2023-05-07T03:10:42;11.55;;;4.65;;
29700;SDS011;57917;51.380;-0.176;2023-05-07T03:16:28;6.35;;;3.88;;
29700;SDS011;57917;51.380;-0.176;2023-05-07T03:22:15;7.63;;;4.00;;
29700;SDS011;57917;51.380;-0.176;2023-05-07T03:28:05;10.48;;;4.47;;
29700;SDS011;57917;51.380;-0.176;2023-05-07T03:33:59;9.77;;;3.72;;
29700;SDS011;57917;51.380;-0.176;2023-05-07T03:39:47;7.03;;;3.90;;
29700;SDS011;57917;51.380;-0.176;2023-05-07T03:45:34;7.68;;;3.85;;
29700;SDS011;57917;51.380;-0.176;2023-05-07T03:51:29;9.68;;;4.25;;
29700;SDS011;57917;51.380;-0.176;2023-05-07T03:57:16;7.70;;;4.50;;
29700;SDS011;57917;51.380;-0.176;2023-05-07T04:03:06;9.40;;;4.10;;
29700;SDS011;57917;51.380;-0.176;2023-05-07T04:08:53;9.13;;;4.03;;
29700;SDS011;57917;51.380;-0.176;2023-05-07T04:14:41;7.88;;;4.05;;
29700;SDS011;57917;51.380;-0.176;2023-05-07T04:20:30;6.18;;;3.67;;
29700;SDS011;57917;51.380;-0.176;2023-05-07T04:26:21;9.43;;;4.90;;
29700;SDS011;57917;51.380;-0.176;2023-05-07T04:32:09;10.23;;;4.90;;
29700;SDS011;57917;51.380;-0.176;2023-05-07T04:37:58;9.10;;;4.93;;
29700;SDS011;57917;51.380;-0.176;2023-05-07T04:43:48;10.43;;;5.07;;
29700;SDS011;57917;51.380;-0.176;2023-05-07T04:49:38;14.50;;;5.30;;
29700;SDS011;57917;51.380;-0.176;2023-05-07T04:55:30;13.40;;;5.28;;
29700;SDS011;57917;51.380;-0.176;2023-05-07T05:01:17;9.93;;;5.05;;
29700;SDS011;57917;51.380;-0.176;2023-05-07T05:07:04;13.45;;;5.68;;
29700;SDS011;57917;51.380;-0.176;2023-05-07T05:12:55;11.85;;;5.10;;
29700;SDS011;57917;51.380;-0.176;2023-05-07T05:18:43;13.43;;;5.25;;
29700;SDS011;57917;51.380;-0.176;2023-05-07T05:24:37;13.50;;;5.13;;
29700;SDS011;57917;51.380;-0.176;2023-05-07T05:30:25;11.75;;;5.43;;
29700;SDS011;57917;51.380;-0.176;2023-05-07T05:36:12;13.10;;;4.88;;
29700;SDS011;57917;51.380;-0.176;2023-05-07T05:42:01;13.52;;;5.53;;
29700;SDS011;57917;51.380;-0.176;2023-05-07T05:47:49;16.67;;;5.15;;
29700;SDS011;57917;51.380;-0.176;2023-05-07T05:53:37;12.50;;;5.50;;
29700;SDS011;57917;51.380;-0.176;2023-05-07T05:59:26;16.55;;;5.57;;
29700;SDS011;57917;51.380;-0.176;2023-05-07T06:05:13;11.52;;;5.10;;
29700;SDS011;57917;51.380;-0.176;2023-05-07T06:11:05;13.93;;;5.22;;
29700;SDS011;57917;51.380;-0.176;2023-05-07T06:16:54;16.40;;;4.90;;
29700;SDS011;57917;51.380;-0.176;2023-05-07T06:22:45;12.35;;;4.97;;
29700;SDS011;57917;51.380;-0.176;2023-05-07T06:28:36;11.38;;;4.57;;
29700;SDS011;57917;51.380;-0.176;2023-05-07T06:34:27;16.77;;;4.72;;
29700;SDS011;57917;51.380;-0.176;2023-05-07T06:40:14;14.20;;;5.03;;
29700;SDS011;57917;51.380;-0.176;2023-05-07T06:46:03;10.82;;;5.00;;
29700;SDS011;57917;51.380;-0.176;2023-05-07T06:51:53;11.88;;;5.13;;
29700;SDS011;57917;51.380;-0.176;2023-05-07T06:57:43;13.00;;;4.70;;
29700;SDS011;57917;51.380;-0.176;2023-05-07T07:03:33;14.25;;;5.28;;
29700;SDS011;57917;51.380;-0.176;2023-05-07T07:09:23;13.90;;;4.65;;
29700;SDS011;57917;51.380;-0.176;2023-05-07T07:15:16;11.38;;;4.72;;
29700;SDS011;57917;51.380;-0.176;2023-05-07T07:21:05;10.48;;;4.43;;
29700;SDS011;57917;51.380;-0.176;2023-05-07T07:26:52;13.82;;;4.05;;
29700;SDS011;57917;51.380;-0.176;2023-05-07T07:32:45;8.63;;;4.07;;
29700;SDS011;57917;51.380;-0.176;2023-05-07T07:38:37;11.52;;;3.45;;
29700;SDS011;57917;51.380;-0.176;2023-05-07T07:44:27;9.10;;;4.10;;
29700;SDS011;57917;51.380;-0.176;2023-05-07T07:50:19;8.02;;;4.45;;
29700;SDS011;57917;51.380;-0.176;2023-05-07T07:56:26;12.38;;;4.47;;
29700;SDS011;57917;51.380;-0.176;2023-05-07T08:02:13;13.55;;;4.93;;
29700;SDS011;57917;51.380;-0.176;2023-05-07T08:08:08;10.65;;;5.30;;
29700;SDS011;57917;51.380;-0.176;2023-05-07T08:14:01;9.52;;;5.00;;
29700;SDS011;57917;51.380;-0.176;2023-05-07T08:19:49;9.82;;;4.70;;
29700;SDS011;57917;51.380;-0.176;2023-05-07T08:25:38;8.52;;;4.20;;
29700;SDS011;57917;51.380;-0.176;2023-05-07T08:31:26;8.45;;;4.00;;
29700;SDS011;57917;51.380;-0.176;2023-05-07T08:37:13;8.95;;;4.28;;
29700;SDS011;57917;51.380;-0.176;2023-05-07T08:43:00;6.03;;;3.75;;
29700;SDS011;57917;51.380;-0.176;2023-05-07T08:48:49;7.65;;;3.65;;
29700;SDS011;57917;51.380;-0.176;2023-05-07T08:54:38;5.50;;;3.33;;
29700;SDS011;57917;51.380;-0.176;2023-05-07T09:00:28;5.00;;;3.00;;
29700;SDS011;57917;51.380;-0.176;2023-05-07T09:06:17;6.15;;;3.45;;
29700;SDS011;57917;51.380;-0.176;2023-05-07T09:12:07;4.63;;;2.88;;
29700;SDS011;57917;51.380;-0.176;2023-05-07T09:17:58;4.85;;;2.90;;
29700;SDS011;57917;51.380;-0.176;2023-05-07T09:23:53;5.00;;;2.20;;
29700;SDS011;57917;51.380;-0.176;2023-05-07T09:29:45;3.30;;;2.00;;
29700;SDS011;57917;51.380;-0.176;2023-05-07T09:35:34;4.50;;;2.67;;
29700;SDS011;57917;51.380;-0.176;2023-05-07T09:41:27;6.88;;;3.42;;
29700;SDS011;57917;51.380;-0.176;2023-05-07T09:47:30;5.07;;;3.58;;
29700;SDS011;57917;51.380;-0.176;2023-05-07T09:53:21;5.78;;;3.63;;
29700;SDS011;57917;51.380;-0.176;2023-05-07T09:59:12;6.63;;;3.15;;
29700;SDS011;57917;51.380;-0.176;2023-05-07T10:05:01;6.00;;;3.88;;
29700;SDS011;57917;51.380;-0.176;2023-05-07T10:10:52;6.22;;;3.88;;
29700;SDS011;57917;51.380;-0.176;2023-05-07T10:16:42;4.68;;;3.30;;
29700;SDS011;57917;51.380;-0.176;2023-05-07T10:22:38;5.60;;;3.30;;
29700;SDS011;57917;51.380;-0.176;2023-05-07T10:28:41;8.75;;;3.05;;
29700;SDS011;57917;51.380;-0.176;2023-05-07T10:34:42;5.00;;;3.47;;
29700;SDS011;57917;51.380;-0.176;2023-05-07T10:40:32;7.70;;;4.25;;
29700;SDS011;57917;51.380;-0.176;2023-05-07T10:46:21;7.40;;;3.15;;
29700;SDS011;57917;51.380;-0.176;2023-05-07T10:52:27;5.53;;;3.00;;
29700;SDS011;57917;51.380;-0.176;2023-05-07T11:04:41;9.63;;;2.95;;
29700;SDS011;57917;51.380;-0.176;2023-05-07T11:10:47;5.67;;;3.57;;
29700;SDS011;57917;51.380;-0.176;2023-05-07T11:16:52;4.07;;;2.85;;
29700;SDS011;57917;51.380;-0.176;2023-05-07T11:22:50;4.45;;;2.75;;
29700;SDS011;57917;51.380;-0.176;2023-05-07T11:29:04;4.85;;;2.80;;
29700;SDS011;57917;51.380;-0.176;2023-05-07T11:35:01;5.53;;;2.55;;
29700;SDS011;57917;51.380;-0.176;2023-05-07T11:40:52;6.43;;;2.05;;
29700;SDS011;57917;51.380;-0.176;2023-05-07T11:46:42;5.45;;;2.33;;
29700;SDS011;57917;51.380;-0.176;2023-05-07T11:52:35;3.30;;;2.10;;
29700;SDS011;57917;51.380;-0.176;2023-05-07T11:58:25;5.85;;;2.55;;
29700;SDS011;57917;51.380;-0.176;2023-05-07T12:04:12;4.60;;;2.80;;
29700;SDS011;57917;51.380;-0.176;2023-05-07T12:10:03;4.47;;;2.85;;
29700;SDS011;57917;51.380;-0.176;2023-05-07T12:15:53;3.87;;;2.13;;
29700;SDS011;57917;51.380;-0.176;2023-05-07T12:21:43;3.45;;;1.92;;
29700;SDS011;57917;51.380;-0.176;2023-05-07T12:27:32;3.55;;;2.03;;
29700;SDS011;57917;51.380;-0.176;2023-05-07T12:33:26;3.85;;;1.90;;
29700;SDS011;57917;51.380;-0.176;2023-05-07T12:39:14;7.55;;;2.08;;
29700;SDS011;57917;51.380;-0.176;2023-05-07T12:45:10;2.55;;;1.45;;
29700;SDS011;57917;51.380;-0.176;2023-05-07T12:50:59;1.20;;;1.10;;
29700;SDS011;57917;51.380;-0.176;2023-05-07T12:56:47;1.85;;;1.42;;
29700;SDS011;57917;51.380;-0.176;2023-05-07T13:02:42;1.88;;;1.20;;
29700;SDS011;57917;51.380;-0.176;2023-05-07T13:08:36;2.28;;;1.10;;
29700;SDS011;57917;51.380;-0.176;2023-05-07T13:14:28;2.05;;;1.20;;
29700;SDS011;57917;51.380;-0.176;2023-05-07T13:20:15;5.68;;;1.58;;
29700;SDS011;57917;51.380;-0.176;2023-05-07T13:26:02;1.73;;;1.40;;
29700;SDS011;57917;51.380;-0.176;2023-05-07T13:32:12;2.83;;;1.48;;
29700;SDS011;57917;51.380;-0.176;2023-05-07T13:37:59;1.83;;;1.52;;
29700;SDS011;57917;51.380;-0.176;2023-05-07T13:43:48;2.10;;;1.63;;
29700;SDS011;57917;51.380;-0.176;2023-05-07T13:49:36;2.47;;;1.60;;
29700;SDS011;57917;51.380;-0.176;2023-05-07T13:55:28;2.65;;;1.60;;
29700;SDS011;57917;51.380;-0.176;2023-05-07T14:01:16;2.30;;;1.20;;
29700;SDS011;57917;51.380;-0.176;2023-05-07T14:07:04;1.73;;;1.13;;
29700;SDS011;57917;51.380;-0.176;2023-05-07T14:12:51;1.58;;;1.23;;
29700;SDS011;57917;51.380;-0.176;2023-05-07T14:18:40;3.38;;;1.88;;
29700;SDS011;57917;51.380;-0.176;2023-05-07T14:24:30;1.67;;;1.38;;
29700;SDS011;57917;51.380;-0.176;2023-05-07T14:30:25;3.80;;;1.42;;
29700;SDS011;57917;51.380;-0.176;2023-05-07T14:36:14;4.97;;;2.22;;
29700;SDS011;57917;51.380;-0.176;2023-05-07T14:42:10;1.88;;;1.25;;
29700;SDS011;57917;51.380;-0.176;2023-05-07T14:48:00;1.75;;;1.33;;
29700;SDS011;57917;51.380;-0.176;2023-05-07T14:53:51;2.50;;;1.00;;
29700;SDS011;57917;51.380;-0.176;2023-05-07T14:59:39;1.60;;;1.00;;
29700;SDS011;57917;51.380;-0.176;2023-05-07T15:05:29;0.90;;;0.80;;
29700;SDS011;57917;51.380;-0.176;2023-05-07T15:11:16;1.70;;;1.20;;
29700;SDS011;57917;51.380;-0.176;2023-05-07T15:17:04;0.68;;;0.68;;
29700;SDS011;57917;51.380;-0.176;2023-05-07T15:22:52;1.58;;;1.10;;
29700;SDS011;57917;51.380;-0.176;2023-05-07T15:28:39;1.42;;;0.80;;
29700;SDS011;57917;51.380;-0.176;2023-05-07T15:34:29;0.80;;;0.50;;
29700;SDS011;57917;51.380;-0.176;2023-05-07T15:40:18;3.30;;;1.05;;
29700;SDS011;57917;51.380;-0.176;2023-05-07T15:46:05;2.53;;;1.55;;
29700;SDS011;57917;51.380;-0.176;2023-05-07T15:51:52;1.50;;;1.10;;
29700;SDS011;57917;51.380;-0.176;2023-05-07T15:57:41;2.97;;;0.80;;
29700;SDS011;57917;51.380;-0.176;2023-05-07T16:03:28;2.83;;;0.93;;
29700;SDS011;57917;51.380;-0.176;2023-05-07T16:09:15;1.65;;;0.80;;
29700;SDS011;57917;51.380;-0.176;2023-05-07T16:15:02;1.17;;;0.70;;
29700;SDS011;57917;51.380;-0.176;2023-05-07T16:20:50;1.75;;;0.80;;
29700;SDS011;57917;51.380;-0.176;2023-05-07T16:26:37;1.65;;;0.98;;
29700;SDS011;57917;51.380;-0.176;2023-05-07T16:32:26;1.35;;;0.80;;
29700;SDS011;57917;51.380;-0.176;2023-05-07T16:38:14;1.23;;;0.70;;
29700;SDS011;57917;51.380;-0.176;2023-05-07T16:44:04;1.63;;;0.90;;
29700;SDS011;57917;51.380;-0.176;2023-05-07T16:49:51;1.30;;;0.70;;
29700;SDS011;57917;51.380;-0.176;2023-05-07T16:55:41;1.55;;;0.98;;
29700;SDS011;57917;51.380;-0.176;2023-05-07T17:01:31;2.17;;;0.60;;
29700;SDS011;57917;51.380;-0.176;2023-05-07T17:07:29;7.50;;;4.10;;
29700;SDS011;57917;51.380;-0.176;2023-05-07T17:13:16;1.55;;;1.05;;
29700;SDS011;57917;51.380;-0.176;2023-05-07T17:19:05;2.35;;;1.00;;
29700;SDS011;57917;51.380;-0.176;2023-05-07T17:24:53;1.10;;;1.00;;
29700;SDS011;57917;51.380;-0.176;2023-05-07T17:30:45;1.17;;;0.88;;
29700;SDS011;57917;51.380;-0.176;2023-05-07T17:36:33;4.60;;;1.63;;
29700;SDS011;57917;51.380;-0.176;2023-05-07T17:42:29;3.72;;;1.20;;
29700;SDS011;57917;51.380;-0.176;2023-05-07T17:48:19;4.25;;;1.50;;
29700;SDS011;57917;51.380;-0.176;2023-05-07T17:54:06;7.22;;;1.23;;
29700;SDS011;57917;51.380;-0.176;2023-05-07T17:59:55;3.38;;;1.25;;
29700;SDS011;57917;51.380;-0.176;2023-05-07T18:05:45;2.35;;;1.40;;
29700;SDS011;57917;51.380;-0.176;2023-05-07T18:11:39;3.72;;;1.33;;
29700;SDS011;57917;51.380;-0.176;2023-05-07T18:17:30;1.50;;;0.90;;
29700;SDS011;57917;51.380;-0.176;2023-05-07T18:23:19;1.00;;;0.82;;
29700;SDS011;57917;51.380;-0.176;2023-05-07T18:29:10;2.15;;;1.00;;
29700;SDS011;57917;51.380;-0.176;2023-05-07T18:35:02;2.47;;;1.23;;
29700;SDS011;57917;51.380;-0.176;2023-05-07T18:40:50;2.08;;;0.82;;
29700;SDS011;57917;51.380;-0.176;2023-05-07T18:46:44;7.75;;;1.38;;
29700;SDS011;57917;51.380;-0.176;2023-05-07T18:52:38;2.50;;;1.20;;
29700;SDS011;57917;51.380;-0.176;2023-05-07T18:58:30;3.92;;;1.55;;
29700;SDS011;57917;51.380;-0.176;2023-05-07T19:04:18;2.80;;;1.30;;
29700;SDS011;57917;51.380;-0.176;2023-05-07T19:10:08;4.88;;;2.05;;
29700;SDS011;57917;51.380;-0.176;2023-05-07T19:15:56;2.28;;;1.13;;
29700;SDS011;57917;51.380;-0.176;2023-05-07T19:21:44;3.17;;;1.88;;
29700;SDS011;57917;51.380;-0.176;2023-05-07T19:42:23;5.13;;;1.55;;
29700;SDS011;57917;51.380;-0.176;2023-05-07T19:48:43;6.70;;;1.80;;
29700;SDS011;57917;51.380;-0.176;2023-05-07T19:54:54;8.43;;;2.63;;
29700;SDS011;57917;51.380;-0.176;2023-05-07T20:00:43;7.30;;;3.13;;
29700;SDS011;57917;51.380;-0.176;2023-05-07T20:06:33;5.05;;;2.50;;
29700;SDS011;57917;51.380;-0.176;2023-05-07T20:12:23;3.97;;;2.05;;
29700;SDS011;57917;51.380;-0.176;2023-05-07T20:18:11;11.63;;;2.90;;
29700;SDS011;57917;51.380;-0.176;2023-05-07T20:24:03;6.93;;;3.05;;
29700;SDS011;57917;51.380;-0.176;2023-05-07T20:29:51;5.90;;;2.80;;
29700;SDS011;57917;51.380;-0.176;2023-05-07T20:35:40;9.38;;;4.85;;
29700;SDS011;57917;51.380;-0.176;2023-05-07T20:41:32;13.60;;;4.90;;
29700;SDS011;57917;51.380;-0.176;2023-05-07T20:47:24;11.20;;;5.50;;
29700;SDS011;57917;51.380;-0.176;2023-05-07T20:53:12;13.50;;;6.25;;
29700;SDS011;57917;51.380;-0.176;2023-05-07T20:59:02;7.45;;;4.15;;
29700;SDS011;57917;51.380;-0.176;2023-05-07T21:04:50;17.02;;;5.80;;
29700;SDS011;57917;51.380;-0.176;2023-05-07T21:10:39;13.02;;;6.03;;
29700;SDS011;57917;51.380;-0.176;2023-05-07T21:16:28;12.52;;;6.00;;
29700;SDS011;57917;51.380;-0.176;2023-05-07T21:22:26;13.32;;;5.15;;
29700;SDS011;57917;51.380;-0.176;2023-05-07T21:28:17;13.20;;;5.57;;
29700;SDS011;57917;51.380;-0.176;2023-05-07T21:34:04;11.38;;;5.38;;
29700;SDS011;57917;51.380;-0.176;2023-05-07T21:39:55;15.13;;;5.47;;
29700;SDS011;57917;51.380;-0.176;2023-05-07T21:45:42;11.48;;;5.13;;
29700;SDS011;57917;51.380;-0.176;2023-05-07T21:51:31;13.98;;;5.25;;
29700;SDS011;57917;51.380;-0.176;2023-05-07T21:57:22;7.75;;;3.85;;
29700;SDS011;57917;51.380;-0.176;2023-05-07T22:03:11;24.30;;;8.13;;
29700;SDS011;57917;51.380;-0.176;2023-05-07T22:09:03;14.32;;;4.75;;
29700;SDS011;57917;51.380;-0.176;2023-05-07T22:15:31;11.65;;;4.18;;
29700;SDS011;57917;51.380;-0.176;2023-05-07T22:28:42;11.30;;;4.30;;
29700;SDS011;57917;51.380;-0.176;2023-05-07T22:40:27;12.75;;;4.07;;
29700;SDS011;57917;51.380;-0.176;2023-05-07T22:46:14;13.95;;;3.33;;
29700;SDS011;57917;51.380;-0.176;2023-05-07T22:52:04;14.80;;;5.53;;
29700;SDS011;57917;51.380;-0.176;2023-05-07T22:57:50;15.75;;;5.50;;
29700;SDS011;57917;51.380;-0.176;2023-05-07T23:03:38;12.55;;;5.22;;
29700;SDS011;57917;51.380;-0.176;2023-05-07T23:09:25;9.95;;;4.72;;
29700;SDS011;57917;51.380;-0.176;2023-05-07T23:15:14;10.82;;;3.97;;
29700;SDS011;57917;51.380;-0.176;2023-05-07T23:21:04;12.10;;;3.70;;
29700;SDS011;57917;51.380;-0.176;2023-05-07T23:26:55;7.90;;;3.83;;
29700;SDS011;57917;51.380;-0.176;2023-05-07T23:32:42;8.02;;;3.38;;
29700;SDS011;57917;51.380;-0.176;2023-05-07T23:38:30;7.50;;;2.92;;
29700;SDS011;57917;51.380;-0.176;2023-05-07T23:44:18;8.13;;;3.22;;
29700;SDS011;57917;51.380;-0.176;2023-05-07T23:50:08;7.35;;;3.03;;
29700;SDS011;57917;51.380;-0.176;2023-05-07T23:56:06;15.02;;;3.78;;
